sensor_id;sensor_type;location;lat;lon;timestamp;pressure;altitude;pressure_sealevel;temperature;humidity
20043;BME280;10182;52.896;6.496;2023-03-03T00:04:06;102507.72;;;0.41;100.00
20043;BME280;10182;52.896;6.496;2023-03-03T00:09:34;102511.13;;;0.37;100.00
20043;BME280;10182;52.896;6.496;2023-03-03T00:14:45;102513.84;;;0.41;100.00
20043;BME280;10182;52.896;6.496;2023-03-03T00:25:31;102511.28;;;0.43;100.00
20043;BME280;10182;52.896;6.496;2023-03-03T00:30:44;102513.91;;;0.44;100.00
20043;BME280;10182;52.896;6.496;2023-03-03T00:36:33;102515.69;;;0.45;100.00
20043;BME280;10182;52.896;6.496;2023-03-03T00:42:27;102515.72;;;0.47;100.00
20043;BME280;10182;52.896;6.496;2023-03-03T00:47:31;102515.88;;;0.55;100.00
20043;BME280;10182;52.896;6.496;2023-03-03T00:52:51;102503.72;;;0.55;100.00
20043;BME280;10182;52.896;6.496;2023-03-03T00:58:01;102502.81;;;0.53;100.00
20043;BME280;10182;52.896;6.496;2023-03-03T01:03:17;102504.72;;;0.60;100.00
20043;BME280;10182;52.896;6.496;2023-03-03T01:08:30;102510.78;;;0.59;100.00
20043;BME280;10182;52.896;6.496;2023-03-03T01:13:34;102511.69;;;0.61;100.00
20043;BME280;10182;52.896;6.496;2023-03-03T01:18:42;102509.94;;;0.60;100.00
20043;BME280;10182;52.896;6.496;2023-03-03T01:23:52;102502.38;;;0.73;100.00
20043;BME280;10182;52.896;6.496;2023-03-03T01:29:11;102506.66;;;0.69;100.00
20043;BME280;10182;52.896;6.496;2023-03-03T01:34:27;102503.13;;;0.67;100.00
20043;BME280;10182;52.896;6.496;2023-03-03T01:39:32;102491.84;;;0.68;100.00
20043;BME280;10182;52.896;6.496;2023-03-03T01:44:37;102498.72;;;0.64;100.00
20043;BME280;10182;52.896;6.496;2023-03-03T01:49:52;102491.94;;;0.71;100.00
20043;BME280;10182;52.896;6.496;2023-03-03T01:55:12;102485.88;;;0.74;100.00
20043;BME280;10182;52.896;6.496;2023-03-03T02:00:16;102480.66;;;0.74;100.00
20043;BME280;10182;52.896;6.496;2023-03-03T02:05:29;102486.00;;;0.78;100.00
20043;BME280;10182;52.896;6.496;2023-03-03T02:10:56;102478.03;;;0.74;100.00
20043;BME280;10182;52.896;6.496;2023-03-03T02:16:01;102479.94;;;0.79;100.00
20043;BME280;10182;52.896;6.496;2023-03-03T02:21:09;102484.41;;;0.87;100.00
20043;BME280;10182;52.896;6.496;2023-03-03T02:26:24;102487.84;;;0.84;100.00
20043;BME280;10182;52.896;6.496;2023-03-03T02:31:37;102486.06;;;0.83;100.00
20043;BME280;10182;52.896;6.496;2023-03-03T02:36:43;102485.22;;;0.84;100.00
20043;BME280;10182;52.896;6.496;2023-03-03T02:41:57;102485.16;;;0.79;100.00
20043;BME280;10182;52.896;6.496;2023-03-03T02:47:06;102481.69;;;0.82;100.00
20043;BME280;10182;52.896;6.496;2023-03-03T02:52:11;102481.78;;;0.85;100.00
20043;BME280;10182;52.896;6.496;2023-03-03T02:57:34;102481.78;;;0.85;100.00
20043;BME280;10182;52.896;6.496;2023-03-03T03:02:38;102480.97;;;0.88;100.00
20043;BME280;10182;52.896;6.496;2023-03-03T03:07:41;102487.06;;;0.88;100.00
20043;BME280;10182;52.896;6.496;2023-03-03T03:12:44;102486.13;;;0.86;100.00
20043;BME280;10182;52.896;6.496;2023-03-03T03:23:12;102478.44;;;0.92;100.00
20043;BME280;10182;52.896;6.496;2023-03-03T03:28:22;102487.94;;;0.89;100.00
20043;BME280;10182;52.896;6.496;2023-03-03T03:33:29;102480.84;;;0.83;100.00
20043;BME280;10182;52.896;6.496;2023-03-03T03:38:39;102482.69;;;0.87;100.00
20043;BME280;10182;52.896;6.496;2023-03-03T03:43:56;102485.22;;;0.82;100.00
20043;BME280;10182;52.896;6.496;2023-03-03T03:49:06;102486.91;;;0.82;100.00
20043;BME280;10182;52.896;6.496;2023-03-03T03:54:14;102484.00;;;0.68;100.00
20043;BME280;10182;52.896;6.496;2023-03-03T03:59:34;102479.50;;;0.61;100.00
20043;BME280;10182;52.896;6.496;2023-03-03T04:04:46;102479.53;;;0.62;100.00
20043;BME280;10182;52.896;6.496;2023-03-03T04:09:52;102477.72;;;0.58;100.00
20043;BME280;10182;52.896;6.496;2023-03-03T04:15:04;102476.81;;;0.56;100.00
20043;BME280;10182;52.896;6.496;2023-03-03T04:20:22;102471.59;;;0.56;100.00
20043;BME280;10182;52.896;6.496;2023-03-03T04:25:38;102472.50;;;0.58;100.00
20043;BME280;10182;52.896;6.496;2023-03-03T04:30:48;102469.78;;;0.52;100.00
20043;BME280;10182;52.896;6.496;2023-03-03T04:35:53;102462.06;;;0.58;100.00
20043;BME280;10182;52.896;6.496;2023-03-03T04:41:20;102464.84;;;0.66;100.00
20043;BME280;10182;52.896;6.496;2023-03-03T04:46:31;102474.31;;;0.62;100.00
20043;BME280;10182;52.896;6.496;2023-03-03T04:51:48;102473.47;;;0.62;100.00
20043;BME280;10182;52.896;6.496;2023-03-03T04:56:57;102470.84;;;0.62;100.00
20043;BME280;10182;52.896;6.496;2023-03-03T05:02:09;102480.47;;;0.64;100.00
20043;BME280;10182;52.896;6.496;2023-03-03T05:07:12;102478.78;;;0.68;100.00
20043;BME280;10182;52.896;6.496;2023-03-03T05:12:22;102480.53;;;0.67;100.00
20043;BME280;10182;52.896;6.496;2023-03-03T05:17:25;102473.47;;;0.63;100.00
20043;BME280;10182;52.896;6.496;2023-03-03T05:22:41;102477.88;;;0.64;100.00
20043;BME280;10182;52.896;6.496;2023-03-03T05:28:18;102479.59;;;0.65;100.00
20043;BME280;10182;52.896;6.496;2023-03-03T05:33:40;102479.59;;;0.65;100.00
20043;BME280;10182;52.896;6.496;2023-03-03T05:39:04;102483.84;;;0.60;100.00
20043;BME280;10182;52.896;6.496;2023-03-03T05:44:27;102485.69;;;0.64;100.00
20043;BME280;10182;52.896;6.496;2023-03-03T05:49:48;102485.53;;;0.58;100.00
20043;BME280;10182;52.896;6.496;2023-03-03T05:54:54;102490.75;;;0.58;100.00
20043;BME280;10182;52.896;6.496;2023-03-03T06:00:15;102489.72;;;0.52;100.00
20043;BME280;10182;52.896;6.496;2023-03-03T06:05:36;102500.19;;;0.53;100.00
20043;BME280;10182;52.896;6.496;2023-03-03T06:10:49;102498.44;;;0.52;100.00
20043;BME280;10182;52.896;6.496;2023-03-03T06:16:03;102503.53;;;0.47;100.00
20043;BME280;10182;52.896;6.496;2023-03-03T06:21:07;102504.38;;;0.46;100.00
20043;BME280;10182;52.896;6.496;2023-03-03T06:26:09;102507.97;;;0.52;100.00
20043;BME280;10182;52.896;6.496;2023-03-03T06:31:10;102510.59;;;0.52;100.00
20043;BME280;10182;52.896;6.496;2023-03-03T06:36:27;102504.66;;;0.59;100.00
20043;BME280;10182;52.896;6.496;2023-03-03T06:41:31;102509.94;;;0.60;100.00
20043;BME280;10182;52.896;6.496;2023-03-03T06:46:45;102519.38;;;0.55;100.00
20043;BME280;10182;52.896;6.496;2023-03-03T06:52:11;102515.00;;;0.54;100.00
20043;BME280;10182;52.896;6.496;2023-03-03T06:57:32;102518.34;;;0.48;100.00
20043;BME280;10182;52.896;6.496;2023-03-03T07:02:37;102521.00;;;0.50;100.00
20043;BME280;10182;52.896;6.496;2023-03-03T07:07:51;102533.22;;;0.53;100.00
20043;BME280;10182;52.896;6.496;2023-03-03T07:13:01;102544.50;;;0.52;100.00
20043;BME280;10182;52.896;6.496;2023-03-03T07:18:40;102545.41;;;0.52;100.00
20043;BME280;10182;52.896;6.496;2023-03-03T07:24:12;102558.44;;;0.52;100.00
20043;BME280;10182;52.896;6.496;2023-03-03T07:29:23;102556.66;;;0.51;100.00
20043;BME280;10182;52.896;6.496;2023-03-03T07:34:43;102560.31;;;0.58;100.00
20043;BME280;10182;52.896;6.496;2023-03-03T07:40:06;102562.97;;;0.61;100.00
20043;BME280;10182;52.896;6.496;2023-03-03T07:45:33;102568.50;;;0.75;100.00
20043;BME280;10182;52.896;6.496;2023-03-03T07:50:45;102564.31;;;0.81;100.00
20043;BME280;10182;52.896;6.496;2023-03-03T07:55:53;102568.84;;;0.90;100.00
20043;BME280;10182;52.896;6.496;2023-03-03T08:06:48;102570.06;;;1.05;100.00
20043;BME280;10182;52.896;6.496;2023-03-03T08:17:37;102578.31;;;1.23;100.00
20043;BME280;10182;52.896;6.496;2023-03-03T08:22:48;102578.34;;;1.26;100.00
20043;BME280;10182;52.896;6.496;2023-03-03T08:27:51;102586.03;;;1.20;100.00
20043;BME280;10182;52.896;6.496;2023-03-03T08:32:53;102577.75;;;1.38;100.00
20043;BME280;10182;52.896;6.496;2023-03-03T08:38:20;102574.63;;;1.56;100.00
20043;BME280;10182;52.896;6.496;2023-03-03T08:43:28;102581.97;;;1.76;100.00
20043;BME280;10182;52.896;6.496;2023-03-03T08:48:51;102577.75;;;1.84;100.00
20043;BME280;10182;52.896;6.496;2023-03-03T08:54:20;102577.09;;;1.94;100.00
20043;BME280;10182;52.896;6.496;2023-03-03T08:59:36;102583.03;;;1.87;100.00
20043;BME280;10182;52.896;6.496;2023-03-03T09:04:46;102576.97;;;1.90;100.00
20043;BME280;10182;52.896;6.496;2023-03-03T09:09:52;102579.63;;;1.91;100.00
20043;BME280;10182;52.896;6.496;2023-03-03T09:15:16;102582.31;;;1.94;100.00
20043;BME280;10182;52.896;6.496;2023-03-03T09:20:38;102587.91;;;2.16;100.00
20043;BME280;10182;52.896;6.496;2023-03-03T09:25:46;102587.09;;;2.18;100.00
20043;BME280;10182;52.896;6.496;2023-03-03T09:30:50;102593.50;;;2.37;100.00
20043;BME280;10182;52.896;6.496;2023-03-03T09:36:18;102585.66;;;2.37;100.00
20043;BME280;10182;52.896;6.496;2023-03-03T09:47:17;102581.56;;;2.53;100.00
20043;BME280;10182;52.896;6.496;2023-03-03T09:52:45;102586.00;;;2.58;100.00
20043;BME280;10182;52.896;6.496;2023-03-03T09:58:12;102588.88;;;2.75;100.00
20043;BME280;10182;52.896;6.496;2023-03-03T10:03:52;102591.63;;;2.82;100.00
20043;BME280;10182;52.896;6.496;2023-03-03T10:09:30;102579.66;;;3.00;100.00
20043;BME280;10182;52.896;6.496;2023-03-03T10:14:55;102585.75;;;3.00;100.00
20043;BME280;10182;52.896;6.496;2023-03-03T10:20:16;102587.69;;;3.14;100.00
20043;BME280;10182;52.896;6.496;2023-03-03T10:25:45;102582.31;;;3.04;100.00
20043;BME280;10182;52.896;6.496;2023-03-03T10:31:08;102581.78;;;3.29;100.00
20043;BME280;10182;52.896;6.496;2023-03-03T10:36:35;102580.13;;;3.34;100.00
20043;BME280;10182;52.896;6.496;2023-03-03T10:42:01;102581.16;;;3.48;100.00
20043;BME280;10182;52.896;6.496;2023-03-03T10:47:29;102588.19;;;3.52;100.00
20043;BME280;10182;52.896;6.496;2023-03-03T10:52:45;102576.06;;;3.61;100.00
20043;BME280;10182;52.896;6.496;2023-03-03T11:04:19;102576.50;;;3.99;100.00
20043;BME280;10182;52.896;6.496;2023-03-03T11:09:49;102580.09;;;4.12;100.00
20043;BME280;10182;52.896;6.496;2023-03-03T11:15:24;102582.69;;;4.06;100.00
20043;BME280;10182;52.896;6.496;2023-03-03T11:20:58;102578.31;;;4.08;100.00
20043;BME280;10182;52.896;6.496;2023-03-03T11:26:37;102571.63;;;4.44;100.00
20043;BME280;10182;52.896;6.496;2023-03-03T11:32:12;102560.59;;;4.93;100.00
20043;BME280;10182;52.896;6.496;2023-03-03T11:37:36;102561.63;;;5.21;100.00
20043;BME280;10182;52.896;6.496;2023-03-03T11:43:19;102554.72;;;5.51;100.00
20043;BME280;10182;52.896;6.496;2023-03-03T11:48:57;102553.03;;;5.73;100.00
20043;BME280;10182;52.896;6.496;2023-03-03T11:54:23;102539.88;;;5.73;100.00
20043;BME280;10182;52.896;6.496;2023-03-03T11:59:41;102534.66;;;5.84;100.00
20043;BME280;10182;52.896;6.496;2023-03-03T12:04:53;102534.66;;;5.81;100.00
20043;BME280;10182;52.896;6.496;2023-03-03T12:16:14;102523.25;;;5.93;100.00
20043;BME280;10182;52.896;6.496;2023-03-03T12:21:33;102516.31;;;6.03;100.00
20043;BME280;10182;52.896;6.496;2023-03-03T12:26:47;102509.25;;;5.88;100.00
20043;BME280;10182;52.896;6.496;2023-03-03T12:32:09;102503.09;;;5.93;100.00
20043;BME280;10182;52.896;6.496;2023-03-03T12:37:35;102502.28;;;6.07;100.00
20043;BME280;10182;52.896;6.496;2023-03-03T12:42:56;102497.84;;;6.01;100.00
20043;BME280;10182;52.896;6.496;2023-03-03T12:48:14;102493.47;;;6.22;100.00
20043;BME280;10182;52.896;6.496;2023-03-03T12:53:29;102489.97;;;6.18;100.00
20043;BME280;10182;52.896;6.496;2023-03-03T12:58:42;102498.75;;;6.03;100.00
20043;BME280;10182;52.896;6.496;2023-03-03T13:04:00;102499.63;;;6.13;100.00
20043;BME280;10182;52.896;6.496;2023-03-03T13:09:32;102497.88;;;6.04;100.00
20043;BME280;10182;52.896;6.496;2023-03-03T13:14:50;102484.69;;;6.12;100.00
20043;BME280;10182;52.896;6.496;2023-03-03T13:20:24;102479.44;;;6.31;100.00
20043;BME280;10182;52.896;6.496;2023-03-03T13:26:02;102478.53;;;6.41;100.00
20043;BME280;10182;52.896;6.496;2023-03-03T13:31:21;102469.78;;;6.37;100.00
20043;BME280;10182;52.896;6.496;2023-03-03T13:36:29;102468.91;;;6.21;100.00
20043;BME280;10182;52.896;6.496;2023-03-03T13:41:41;102460.13;;;6.33;100.00
20043;BME280;10182;52.896;6.496;2023-03-03T13:47:01;102460.09;;;6.52;100.00
20043;BME280;10182;52.896;6.496;2023-03-03T13:52:21;102451.28;;;6.64;100.00
20043;BME280;10182;52.896;6.496;2023-03-03T13:58:00;102444.22;;;6.80;100.00
20043;BME280;10182;52.896;6.496;2023-03-03T14:09:15;102436.31;;;6.78;100.00
20043;BME280;10182;52.896;6.496;2023-03-03T14:14:46;102429.38;;;6.57;100.00
20043;BME280;10182;52.896;6.496;2023-03-03T14:20:03;102425.91;;;6.35;100.00
20043;BME280;10182;52.896;6.496;2023-03-03T14:25:15;102416.28;;;6.23;100.00
20043;BME280;10182;52.896;6.496;2023-03-03T14:30:33;102416.28;;;6.14;100.00
20043;BME280;10182;52.896;6.496;2023-03-03T14:35:38;102418.94;;;6.09;100.00
20043;BME280;10182;52.896;6.496;2023-03-03T14:41:03;102411.94;;;5.99;100.00
20043;BME280;10182;52.896;6.496;2023-03-03T14:46:46;102418.06;;;6.05;100.00
20043;BME280;10182;52.896;6.496;2023-03-03T14:52:25;102400.47;;;6.24;100.00
20043;BME280;10182;52.896;6.496;2023-03-03T14:57:42;102401.34;;;6.37;100.00
20043;BME280;10182;52.896;6.496;2023-03-03T15:03:01;102398.75;;;6.23;100.00
20043;BME280;10182;52.896;6.496;2023-03-03T15:08:24;102391.75;;;6.08;100.00
20043;BME280;10182;52.896;6.496;2023-03-03T15:13:43;102386.31;;;6.67;100.00
20043;BME280;10182;52.896;6.496;2023-03-03T15:19:26;102374.94;;;6.56;100.00
20043;BME280;10182;52.896;6.496;2023-03-03T15:24:42;102380.25;;;6.48;100.00
20043;BME280;10182;52.896;6.496;2023-03-03T15:30:12;102379.44;;;6.28;100.00
20043;BME280;10182;52.896;6.496;2023-03-03T15:35:41;102380.38;;;5.99;100.00
20043;BME280;10182;52.896;6.496;2023-03-03T15:40:59;102387.38;;;5.83;100.00
20043;BME280;10182;52.896;6.496;2023-03-03T15:46:31;102384.72;;;5.78;100.00
20043;BME280;10182;52.896;6.496;2023-03-03T15:52:13;102389.13;;;5.50;100.00
20043;BME280;10182;52.896;6.496;2023-03-03T15:57:58;102383.84;;;5.34;100.00
20043;BME280;10182;52.896;6.496;2023-03-03T16:03:13;102377.72;;;5.43;100.00
20043;BME280;10182;52.896;6.496;2023-03-03T16:09:09;102377.72;;;5.37;100.00
20043;BME280;10182;52.896;6.496;2023-03-03T16:14:38;102386.47;;;5.30;100.00
20043;BME280;10182;52.896;6.496;2023-03-03T16:19:49;102379.47;;;5.32;100.00
20043;BME280;10182;52.896;6.496;2023-03-03T16:25:06;102389.97;;;5.21;100.00
20043;BME280;10182;52.896;6.496;2023-03-03T16:30:24;102382.94;;;5.18;100.00
20043;BME280;10182;52.896;6.496;2023-03-03T16:35:41;102393.44;;;5.11;100.00
20043;BME280;10182;52.896;6.496;2023-03-03T16:40:51;102386.44;;;5.14;100.00
20043;BME280;10182;52.896;6.496;2023-03-03T16:46:06;102395.19;;;5.13;100.00
20043;BME280;10182;52.896;6.496;2023-03-03T16:51:25;102405.69;;;5.12;100.00
20043;BME280;10182;52.896;6.496;2023-03-03T16:56:47;102408.28;;;5.04;100.00
20043;BME280;10182;52.896;6.496;2023-03-03T17:02:06;102403.03;;;5.05;100.00
20043;BME280;10182;52.896;6.496;2023-03-03T17:07:35;102412.69;;;5.03;100.00
20043;BME280;10182;52.896;6.496;2023-03-03T17:12:55;102408.28;;;5.01;100.00
20043;BME280;10182;52.896;6.496;2023-03-03T17:18:11;102407.41;;;4.96;100.00
20043;BME280;10182;52.896;6.496;2023-03-03T17:23:39;102412.66;;;4.93;100.00
20043;BME280;10182;52.896;6.496;2023-03-03T17:28:58;102410.03;;;4.94;100.00
20043;BME280;10182;52.896;6.496;2023-03-03T17:34:43;102414.41;;;4.95;100.00
20043;BME280;10182;52.896;6.496;2023-03-03T17:40:07;102419.63;;;4.92;100.00
20043;BME280;10182;52.896;6.496;2023-03-03T17:45:23;102414.41;;;4.94;100.00
20043;BME280;10182;52.896;6.496;2023-03-03T17:51:09;102417.91;;;4.94;100.00
20043;BME280;10182;52.896;6.496;2023-03-03T17:56:42;102424.00;;;4.91;100.00
20043;BME280;10182;52.896;6.496;2023-03-03T18:02:03;102424.88;;;4.89;100.00
20043;BME280;10182;52.896;6.496;2023-03-03T18:07:52;102426.63;;;4.85;100.00
20043;BME280;10182;52.896;6.496;2023-03-03T18:13:40;102425.72;;;4.80;100.00
20043;BME280;10182;52.896;6.496;2023-03-03T18:18:56;102427.50;;;4.81;100.00
20043;BME280;10182;52.896;6.496;2023-03-03T18:24:29;102425.72;;;4.83;100.00
20043;BME280;10182;52.896;6.496;2023-03-03T18:35:29;102427.50;;;4.81;100.00
20043;BME280;10182;52.896;6.496;2023-03-03T18:40:49;102432.75;;;4.81;100.00
20043;BME280;10182;52.896;6.496;2023-03-03T18:45:55;102430.97;;;4.79;100.00
20043;BME280;10182;52.896;6.496;2023-03-03T18:51:00;102429.22;;;4.78;100.00
20043;BME280;10182;52.896;6.496;2023-03-03T18:56:09;102434.47;;;4.74;100.00
20043;BME280;10182;52.896;6.496;2023-03-03T19:01:43;102443.22;;;4.77;100.00
20043;BME280;10182;52.896;6.496;2023-03-03T19:07:12;102437.94;;;4.72;100.00
20043;BME280;10182;52.896;6.496;2023-03-03T19:12:17;102444.94;;;4.71;100.00
20043;BME280;10182;52.896;6.496;2023-03-03T19:17:49;102432.69;;;4.70;100.00
20043;BME280;10182;52.896;6.496;2023-03-03T19:23:02;102441.44;;;4.68;100.00
20043;BME280;10182;52.896;6.496;2023-03-03T19:28:19;102437.03;;;4.68;100.00
20043;BME280;10182;52.896;6.496;2023-03-03T19:33:40;102430.94;;;4.69;100.00
20043;BME280;10182;52.896;6.496;2023-03-03T19:38:56;102431.78;;;4.68;100.00
20043;BME280;10182;52.896;6.496;2023-03-03T19:44:08;102435.31;;;4.73;100.00
20043;BME280;10182;52.896;6.496;2023-03-03T19:49:24;102431.78;;;4.65;100.00
20043;BME280;10182;52.896;6.496;2023-03-03T19:54:48;102439.59;;;4.57;100.00
20043;BME280;10182;52.896;6.496;2023-03-03T19:59:59;102448.41;;;4.66;100.00
20043;BME280;10182;52.896;6.496;2023-03-03T20:05:19;102456.25;;;4.58;100.00
20043;BME280;10182;52.896;6.496;2023-03-03T20:10:43;102460.63;;;4.59;100.00
20043;BME280;10182;52.896;6.496;2023-03-03T20:15:55;102456.25;;;4.61;100.00
20043;BME280;10182;52.896;6.496;2023-03-03T20:21:09;102463.28;;;4.68;100.00
20043;BME280;10182;52.896;6.496;2023-03-03T20:26:15;102463.28;;;4.67;100.00
20043;BME280;10182;52.896;6.496;2023-03-03T20:31:24;102466.78;;;4.64;100.00
20043;BME280;10182;52.896;6.496;2023-03-03T20:36:39;102476.47;;;4.74;100.00
20043;BME280;10182;52.896;6.496;2023-03-03T20:41:55;102477.28;;;4.67;100.00
20043;BME280;10182;52.896;6.496;2023-03-03T20:47:11;102477.31;;;4.69;100.00
20043;BME280;10182;52.896;6.496;2023-03-03T20:52:30;102480.81;;;4.71;100.00
20043;BME280;10182;52.896;6.496;2023-03-03T20:57:41;102484.34;;;4.76;100.00
20043;BME280;10182;52.896;6.496;2023-03-03T21:03:16;102475.50;;;4.58;100.00
20043;BME280;10182;52.896;6.496;2023-03-03T21:08:54;102477.25;;;4.58;100.00
20043;BME280;10182;52.896;6.496;2023-03-03T21:14:13;102474.66;;;4.67;100.00
20043;BME280;10182;52.896;6.496;2023-03-03T21:19:26;102472.00;;;4.60;100.00
20043;BME280;10182;52.896;6.496;2023-03-03T21:24:51;102480.81;;;4.65;100.00
20043;BME280;10182;52.896;6.496;2023-03-03T21:30:08;102474.66;;;4.64;100.00
20043;BME280;10182;52.896;6.496;2023-03-03T21:35:12;102476.41;;;4.65;100.00
20043;BME280;10182;52.896;6.496;2023-03-03T21:40:19;102474.69;;;4.70;100.00
20043;BME280;10182;52.896;6.496;2023-03-03T21:45:25;102473.72;;;4.59;100.00
20043;BME280;10182;52.896;6.496;2023-03-03T21:50:29;102475.50;;;4.63;100.00
20043;BME280;10182;52.896;6.496;2023-03-03T21:55:33;102478.19;;;4.69;100.00
20043;BME280;10182;52.896;6.496;2023-03-03T22:00:35;102472.88;;;4.62;100.00
20043;BME280;10182;52.896;6.496;2023-03-03T22:05:39;102474.66;;;4.66;100.00
20043;BME280;10182;52.896;6.496;2023-03-03T22:10:42;102474.72;;;4.75;100.00
20043;BME280;10182;52.896;6.496;2023-03-03T22:15:46;102473.84;;;4.78;100.00
20043;BME280;10182;52.896;6.496;2023-03-03T22:20:48;102486.13;;;4.77;100.00
20043;BME280;10182;52.896;6.496;2023-03-03T22:25:52;102475.53;;;4.65;100.00
20043;BME280;10182;52.896;6.496;2023-03-03T22:30:54;102476.41;;;4.68;100.00
20043;BME280;10182;52.896;6.496;2023-03-03T22:35:56;102472.06;;;4.72;100.00
20043;BME280;10182;52.896;6.496;2023-03-03T22:41:00;102459.88;;;4.79;100.00
20043;BME280;10182;52.896;6.496;2023-03-03T22:46:02;102470.31;;;4.72;100.00
20043;BME280;10182;52.896;6.496;2023-03-03T22:51:04;102472.06;;;4.69;100.00
20043;BME280;10182;52.896;6.496;2023-03-03T22:56:08;102464.19;;;4.70;100.00
20043;BME280;10182;52.896;6.496;2023-03-03T23:01:10;102464.13;;;4.58;100.00
20043;BME280;10182;52.896;6.496;2023-03-03T23:06:12;102458.91;;;4.64;100.00
20043;BME280;10182;52.896;6.496;2023-03-03T23:11:16;102458.88;;;4.60;100.00
20043;BME280;10182;52.896;6.496;2023-03-03T23:16:18;102458.03;;;4.62;100.00
20043;BME280;10182;52.896;6.496;2023-03-03T23:21:20;102451.00;;;4.60;100.00
20043;BME280;10182;52.896;6.496;2023-03-03T23:26:23;102457.19;;;4.66;100.00
20043;BME280;10182;52.896;6.496;2023-03-03T23:31:25;102455.38;;;4.61;100.00
20043;BME280;10182;52.896;6.496;2023-03-03T23:36:27;102455.41;;;4.64;100.00
20043;BME280;10182;52.896;6.496;2023-03-03T23:41:30;102451.94;;;4.75;100.00
20043;BME280;10182;52.896;6.496;2023-03-03T23:46:32;102446.69;;;4.68;100.00
20043;BME280;10182;52.896;6.496;2023-03-03T23:51:34;102451.94;;;4.72;100.00
20043;BME280;10182;52.896;6.496;2023-03-03T23:56:37;102459.81;;;4.71;100.00
